sensor_id;sensor_type;location;lat;lon;timestamp;P1;durP1;ratioP1;P2;durP2;ratioP2
32505;SDS011;18955;51.224;8.482;2023-08-17T00:00:45;8.10;;;5.03;;
32505;SDS011;18955;51.224;8.482;2023-08-17T00:03:11;5.18;;;4.68;;
32505;SDS011;18955;51.224;8.482;2023-08-17T00:05:37;10.23;;;5.03;;
32505;SDS011;18955;51.224;8.482;2023-08-17T00:08:05;5.07;;;4.57;;
32505;SDS011;18955;51.224;8.482;2023-08-17T00:10:31;5.68;;;5.05;;
32505;SDS011;18955;51.224;8.482;2023-08-17T00:12:58;8.50;;;6.93;;
32505;SDS011;18955;51.224;8.482;2023-08-17T00:15:24;7.32;;;6.05;;
32505;SDS011;18955;51.224;8.482;2023-08-17T00:17:50;12.88;;;10.02;;
32505;SDS011;18955;51.224;8.482;2023-08-17T00:20:16;11.65;;;8.68;;
32505;SDS011;18955;51.224;8.482;2023-08-17T00:22:42;12.02;;;9.40;;
32505;SDS011;18955;51.224;8.482;2023-08-17T00:25:09;10.70;;;9.05;;
32505;SDS011;18955;51.224;8.482;2023-08-17T00:27:35;14.10;;;11.10;;
32505;SDS011;18955;51.224;8.482;2023-08-17T00:30:01;13.38;;;10.43;;
32505;SDS011;18955;51.224;8.482;2023-08-17T00:32:28;12.27;;;10.98;;
32505;SDS011;18955;51.224;8.482;2023-08-17T00:34:54;8.65;;;7.35;;
32505;SDS011;18955;51.224;8.482;2023-08-17T00:37:20;13.30;;;9.38;;
32505;SDS011;18955;51.224;8.482;2023-08-17T00:39:46;7.07;;;6.38;;
32505;SDS011;18955;51.224;8.482;2023-08-17T00:42:12;11.68;;;8.77;;
32505;SDS011;18955;51.224;8.482;2023-08-17T00:44:41;8.95;;;8.05;;
32505;SDS011;18955;51.224;8.482;2023-08-17T00:47:07;10.38;;;9.20;;
32505;SDS011;18955;51.224;8.482;2023-08-17T00:49:34;12.85;;;9.27;;
32505;SDS011;18955;51.224;8.482;2023-08-17T00:54:28;16.05;;;9.70;;
32505;SDS011;18955;51.224;8.482;2023-08-17T00:56:55;11.68;;;9.35;;
32505;SDS011;18955;51.224;8.482;2023-08-17T00:59:22;13.77;;;10.52;;
32505;SDS011;18955;51.224;8.482;2023-08-17T01:01:48;12.95;;;10.13;;
32505;SDS011;18955;51.224;8.482;2023-08-17T01:06:43;13.48;;;9.65;;
32505;SDS011;18955;51.224;8.482;2023-08-17T01:09:09;12.05;;;9.48;;
32505;SDS011;18955;51.224;8.482;2023-08-17T01:11:45;11.63;;;9.02;;
32505;SDS011;18955;51.224;8.482;2023-08-17T01:14:24;10.10;;;9.05;;
32505;SDS011;18955;51.224;8.482;2023-08-17T01:19:26;9.38;;;8.05;;
32505;SDS011;18955;51.224;8.482;2023-08-17T01:22:15;9.70;;;8.13;;
32505;SDS011;18955;51.224;8.482;2023-08-17T01:24:43;12.25;;;8.60;;
32505;SDS011;18955;51.224;8.482;2023-08-17T01:27:09;9.70;;;7.13;;
32505;SDS011;18955;51.224;8.482;2023-08-17T01:29:35;10.48;;;7.40;;
32505;SDS011;18955;51.224;8.482;2023-08-17T01:35:01;9.63;;;7.68;;
32505;SDS011;18955;51.224;8.482;2023-08-17T01:37:34;9.02;;;6.97;;
32505;SDS011;18955;51.224;8.482;2023-08-17T01:40:03;8.15;;;6.70;;
32505;SDS011;18955;51.224;8.482;2023-08-17T01:42:30;10.77;;;6.68;;
32505;SDS011;18955;51.224;8.482;2023-08-17T01:44:57;8.00;;;7.20;;
32505;SDS011;18955;51.224;8.482;2023-08-17T01:47:24;7.95;;;7.18;;
32505;SDS011;18955;51.224;8.482;2023-08-17T01:49:50;8.60;;;7.53;;
32505;SDS011;18955;51.224;8.482;2023-08-17T01:52:16;11.90;;;7.18;;
32505;SDS011;18955;51.224;8.482;2023-08-17T01:54:42;7.63;;;6.80;;
32505;SDS011;18955;51.224;8.482;2023-08-17T01:57:09;13.48;;;7.05;;
32505;SDS011;18955;51.224;8.482;2023-08-17T01:59:35;10.73;;;6.40;;
32505;SDS011;18955;51.224;8.482;2023-08-17T02:02:01;11.52;;;7.05;;
32505;SDS011;18955;51.224;8.482;2023-08-17T02:04:27;8.45;;;7.00;;
32505;SDS011;18955;51.224;8.482;2023-08-17T02:06:53;8.43;;;7.63;;
32505;SDS011;18955;51.224;8.482;2023-08-17T02:09:20;10.90;;;9.55;;
32505;SDS011;18955;51.224;8.482;2023-08-17T02:11:46;8.43;;;7.53;;
32505;SDS011;18955;51.224;8.482;2023-08-17T02:14:12;6.22;;;5.35;;
32505;SDS011;18955;51.224;8.482;2023-08-17T02:16:38;7.47;;;5.43;;
32505;SDS011;18955;51.224;8.482;2023-08-17T02:19:04;10.88;;;6.38;;
32505;SDS011;18955;51.224;8.482;2023-08-17T02:21:31;12.05;;;9.88;;
32505;SDS011;18955;51.224;8.482;2023-08-17T02:23:57;9.70;;;6.57;;
32505;SDS011;18955;51.224;8.482;2023-08-17T02:26:23;15.35;;;10.48;;
32505;SDS011;18955;51.224;8.482;2023-08-17T02:28:49;11.65;;;9.13;;
32505;SDS011;18955;51.224;8.482;2023-08-17T02:31:15;10.95;;;9.38;;
32505;SDS011;18955;51.224;8.482;2023-08-17T02:33:41;13.43;;;11.63;;
32505;SDS011;18955;51.224;8.482;2023-08-17T02:36:08;13.80;;;11.77;;
32505;SDS011;18955;51.224;8.482;2023-08-17T02:38:34;13.27;;;10.75;;
32505;SDS011;18955;51.224;8.482;2023-08-17T02:41:00;32.85;;;13.35;;
32505;SDS011;18955;51.224;8.482;2023-08-17T02:43:26;15.73;;;12.10;;
32505;SDS011;18955;51.224;8.482;2023-08-17T02:45:52;13.43;;;10.95;;
32505;SDS011;18955;51.224;8.482;2023-08-17T02:48:20;13.27;;;10.13;;
32505;SDS011;18955;51.224;8.482;2023-08-17T02:50:46;13.63;;;10.73;;
32505;SDS011;18955;51.224;8.482;2023-08-17T02:53:12;9.65;;;7.72;;
32505;SDS011;18955;51.224;8.482;2023-08-17T02:55:38;12.32;;;10.63;;
32505;SDS011;18955;51.224;8.482;2023-08-17T02:58:04;11.98;;;9.75;;
32505;SDS011;18955;51.224;8.482;2023-08-17T03:00:31;12.82;;;9.75;;
32505;SDS011;18955;51.224;8.482;2023-08-17T03:02:57;46.53;;;11.98;;
32505;SDS011;18955;51.224;8.482;2023-08-17T03:05:23;11.93;;;10.80;;
32505;SDS011;18955;51.224;8.482;2023-08-17T03:07:49;46.97;;;12.05;;
32505;SDS011;18955;51.224;8.482;2023-08-17T03:10:15;59.78;;;8.65;;
32505;SDS011;18955;51.224;8.482;2023-08-17T03:12:41;22.92;;;10.88;;
32505;SDS011;18955;51.224;8.482;2023-08-17T03:15:08;13.73;;;10.18;;
32505;SDS011;18955;51.224;8.482;2023-08-17T03:17:35;30.38;;;11.20;;
32505;SDS011;18955;51.224;8.482;2023-08-17T03:20:02;11.38;;;9.90;;
32505;SDS011;18955;51.224;8.482;2023-08-17T03:22:32;11.98;;;10.77;;
32505;SDS011;18955;51.224;8.482;2023-08-17T03:24:59;46.13;;;9.85;;
32505;SDS011;18955;51.224;8.482;2023-08-17T03:27:26;33.63;;;10.45;;
32505;SDS011;18955;51.224;8.482;2023-08-17T03:29:54;26.13;;;10.50;;
32505;SDS011;18955;51.224;8.482;2023-08-17T03:32:20;11.05;;;9.95;;
32505;SDS011;18955;51.224;8.482;2023-08-17T03:34:47;10.77;;;9.77;;
32505;SDS011;18955;51.224;8.482;2023-08-17T03:37:13;24.23;;;10.02;;
32505;SDS011;18955;51.224;8.482;2023-08-17T03:42:06;30.23;;;11.95;;
32505;SDS011;18955;51.224;8.482;2023-08-17T03:44:32;47.80;;;10.65;;
32505;SDS011;18955;51.224;8.482;2023-08-17T03:46:58;17.58;;;11.55;;
32505;SDS011;18955;51.224;8.482;2023-08-17T03:49:24;12.38;;;10.07;;
32505;SDS011;18955;51.224;8.482;2023-08-17T03:51:51;33.70;;;10.30;;
32505;SDS011;18955;51.224;8.482;2023-08-17T03:54:17;19.63;;;7.15;;
32505;SDS011;18955;51.224;8.482;2023-08-17T03:56:44;27.42;;;9.82;;
32505;SDS011;18955;51.224;8.482;2023-08-17T03:59:10;11.65;;;8.95;;
32505;SDS011;18955;51.224;8.482;2023-08-17T04:04:03;12.90;;;9.50;;
32505;SDS011;18955;51.224;8.482;2023-08-17T04:06:29;14.20;;;10.68;;
32505;SDS011;18955;51.224;8.482;2023-08-17T04:08:56;10.73;;;8.70;;
32505;SDS011;18955;51.224;8.482;2023-08-17T04:11:22;10.23;;;8.90;;
32505;SDS011;18955;51.224;8.482;2023-08-17T04:13:49;17.48;;;8.95;;
32505;SDS011;18955;51.224;8.482;2023-08-17T04:16:15;10.45;;;9.15;;
32505;SDS011;18955;51.224;8.482;2023-08-17T04:18:42;7.22;;;6.55;;
32505;SDS011;18955;51.224;8.482;2023-08-17T04:21:08;9.82;;;8.85;;
32505;SDS011;18955;51.224;8.482;2023-08-17T04:23:34;11.73;;;8.45;;
32505;SDS011;18955;51.224;8.482;2023-08-17T04:26:00;9.27;;;8.30;;
32505;SDS011;18955;51.224;8.482;2023-08-17T04:28:28;10.32;;;9.20;;
32505;SDS011;18955;51.224;8.482;2023-08-17T04:30:54;9.60;;;8.43;;
32505;SDS011;18955;51.224;8.482;2023-08-17T04:33:21;9.85;;;8.93;;
32505;SDS011;18955;51.224;8.482;2023-08-17T04:35:47;17.02;;;9.80;;
32505;SDS011;18955;51.224;8.482;2023-08-17T04:38:14;11.07;;;10.02;;
32505;SDS011;18955;51.224;8.482;2023-08-17T04:40:40;9.73;;;8.73;;
32505;SDS011;18955;51.224;8.482;2023-08-17T04:43:09;11.98;;;8.32;;
32505;SDS011;18955;51.224;8.482;2023-08-17T04:45:36;12.32;;;9.20;;
32505;SDS011;18955;51.224;8.482;2023-08-17T04:48:03;11.20;;;9.63;;
32505;SDS011;18955;51.224;8.482;2023-08-17T04:50:31;11.30;;;10.20;;
32505;SDS011;18955;51.224;8.482;2023-08-17T04:52:59;15.98;;;10.02;;
32505;SDS011;18955;51.224;8.482;2023-08-17T04:55:25;10.63;;;9.65;;
32505;SDS011;18955;51.224;8.482;2023-08-17T04:57:52;6.80;;;6.18;;
32505;SDS011;18955;51.224;8.482;2023-08-17T05:00:18;10.73;;;9.73;;
32505;SDS011;18955;51.224;8.482;2023-08-17T05:02:51;9.50;;;8.60;;
32505;SDS011;18955;51.224;8.482;2023-08-17T05:05:17;11.75;;;9.75;;
32505;SDS011;18955;51.224;8.482;2023-08-17T05:07:44;12.98;;;9.00;;
32505;SDS011;18955;51.224;8.482;2023-08-17T05:10:10;11.20;;;9.00;;
32505;SDS011;18955;51.224;8.482;2023-08-17T05:12:38;10.32;;;9.35;;
32505;SDS011;18955;51.224;8.482;2023-08-17T05:15:05;18.20;;;10.15;;
32505;SDS011;18955;51.224;8.482;2023-08-17T05:17:32;21.50;;;10.00;;
32505;SDS011;18955;51.224;8.482;2023-08-17T05:19:59;11.80;;;8.80;;
32505;SDS011;18955;51.224;8.482;2023-08-17T05:22:25;15.65;;;9.55;;
32505;SDS011;18955;51.224;8.482;2023-08-17T05:24:53;10.82;;;9.02;;
32505;SDS011;18955;51.224;8.482;2023-08-17T05:27:19;13.45;;;8.75;;
32505;SDS011;18955;51.224;8.482;2023-08-17T05:29:47;11.38;;;9.65;;
32505;SDS011;18955;51.224;8.482;2023-08-17T05:32:13;14.05;;;9.32;;
32505;SDS011;18955;51.224;8.482;2023-08-17T05:34:41;11.55;;;9.63;;
32505;SDS011;18955;51.224;8.482;2023-08-17T05:37:07;14.38;;;10.57;;
32505;SDS011;18955;51.224;8.482;2023-08-17T05:39:33;15.10;;;9.52;;
32505;SDS011;18955;51.224;8.482;2023-08-17T05:42:00;14.45;;;11.00;;
32505;SDS011;18955;51.224;8.482;2023-08-17T05:44:26;10.52;;;9.48;;
32505;SDS011;18955;51.224;8.482;2023-08-17T05:46:52;7.25;;;6.55;;
32505;SDS011;18955;51.224;8.482;2023-08-17T05:49:18;8.25;;;7.45;;
32505;SDS011;18955;51.224;8.482;2023-08-17T05:51:44;10.25;;;9.25;;
32505;SDS011;18955;51.224;8.482;2023-08-17T05:54:12;10.77;;;9.68;;
32505;SDS011;18955;51.224;8.482;2023-08-17T05:56:39;10.48;;;9.45;;
32505;SDS011;18955;51.224;8.482;2023-08-17T05:59:10;12.73;;;10.10;;
32505;SDS011;18955;51.224;8.482;2023-08-17T06:01:36;11.10;;;9.60;;
32505;SDS011;18955;51.224;8.482;2023-08-17T06:06:30;13.20;;;9.05;;
32505;SDS011;18955;51.224;8.482;2023-08-17T06:08:56;10.27;;;8.75;;
32505;SDS011;18955;51.224;8.482;2023-08-17T06:11:22;9.68;;;7.65;;
32505;SDS011;18955;51.224;8.482;2023-08-17T06:13:49;11.32;;;7.65;;
32505;SDS011;18955;51.224;8.482;2023-08-17T06:16:15;14.65;;;7.75;;
32505;SDS011;18955;51.224;8.482;2023-08-17T06:18:42;8.52;;;6.60;;
32505;SDS011;18955;51.224;8.482;2023-08-17T06:21:08;5.68;;;4.25;;
32505;SDS011;18955;51.224;8.482;2023-08-17T06:23:34;7.05;;;6.15;;
32505;SDS011;18955;51.224;8.482;2023-08-17T06:26:00;7.40;;;5.82;;
32505;SDS011;18955;51.224;8.482;2023-08-17T06:28:27;9.27;;;6.10;;
32505;SDS011;18955;51.224;8.482;2023-08-17T06:33:21;8.50;;;5.70;;
32505;SDS011;18955;51.224;8.482;2023-08-17T06:35:48;6.65;;;5.50;;
32505;SDS011;18955;51.224;8.482;2023-08-17T06:38:14;6.28;;;5.40;;
32505;SDS011;18955;51.224;8.482;2023-08-17T06:40:41;6.43;;;5.32;;
32505;SDS011;18955;51.224;8.482;2023-08-17T06:43:07;7.22;;;6.43;;
32505;SDS011;18955;51.224;8.482;2023-08-17T06:45:33;10.15;;;5.15;;
32505;SDS011;18955;51.224;8.482;2023-08-17T06:48:00;4.07;;;3.65;;
32505;SDS011;18955;51.224;8.482;2023-08-17T06:50:26;5.60;;;4.47;;
32505;SDS011;18955;51.224;8.482;2023-08-17T06:52:54;7.78;;;5.32;;
32505;SDS011;18955;51.224;8.482;2023-08-17T06:55:20;5.57;;;5.07;;
32505;SDS011;18955;51.224;8.482;2023-08-17T06:57:46;7.00;;;4.47;;
32505;SDS011;18955;51.224;8.482;2023-08-17T07:00:15;8.05;;;5.05;;
32505;SDS011;18955;51.224;8.482;2023-08-17T07:02:41;6.47;;;5.65;;
32505;SDS011;18955;51.224;8.482;2023-08-17T07:05:08;6.35;;;5.32;;
32505;SDS011;18955;51.224;8.482;2023-08-17T07:07:35;6.82;;;6.13;;
32505;SDS011;18955;51.224;8.482;2023-08-17T07:10:02;6.45;;;5.72;;
32505;SDS011;18955;51.224;8.482;2023-08-17T07:12:28;5.60;;;5.10;;
32505;SDS011;18955;51.224;8.482;2023-08-17T07:14:54;5.78;;;4.55;;
32505;SDS011;18955;51.224;8.482;2023-08-17T07:17:20;7.10;;;5.90;;
32505;SDS011;18955;51.224;8.482;2023-08-17T07:19:46;7.13;;;5.75;;
32505;SDS011;18955;51.224;8.482;2023-08-17T07:22:13;6.63;;;4.47;;
32505;SDS011;18955;51.224;8.482;2023-08-17T07:24:39;7.72;;;6.72;;
32505;SDS011;18955;51.224;8.482;2023-08-17T07:27:05;15.15;;;8.63;;
32505;SDS011;18955;51.224;8.482;2023-08-17T07:29:31;10.50;;;8.98;;
32505;SDS011;18955;51.224;8.482;2023-08-17T07:31:57;12.57;;;9.68;;
32505;SDS011;18955;51.224;8.482;2023-08-17T07:34:27;16.98;;;11.38;;
32505;SDS011;18955;51.224;8.482;2023-08-17T07:36:55;15.93;;;10.70;;
32505;SDS011;18955;51.224;8.482;2023-08-17T07:39:21;21.05;;;13.70;;
32505;SDS011;18955;51.224;8.482;2023-08-17T07:41:48;18.65;;;13.88;;
32505;SDS011;18955;51.224;8.482;2023-08-17T07:44:14;18.20;;;14.43;;
32505;SDS011;18955;51.224;8.482;2023-08-17T07:46:40;18.98;;;15.40;;
32505;SDS011;18955;51.224;8.482;2023-08-17T07:49:06;13.95;;;10.30;;
32505;SDS011;18955;51.224;8.482;2023-08-17T07:51:32;19.75;;;15.35;;
32505;SDS011;18955;51.224;8.482;2023-08-17T07:56:26;19.30;;;14.93;;
32505;SDS011;18955;51.224;8.482;2023-08-17T07:58:55;24.45;;;15.10;;
32505;SDS011;18955;51.224;8.482;2023-08-17T08:01:21;16.38;;;13.32;;
32505;SDS011;18955;51.224;8.482;2023-08-17T08:03:47;16.75;;;13.70;;
32505;SDS011;18955;51.224;8.482;2023-08-17T08:06:14;19.33;;;14.50;;
32505;SDS011;18955;51.224;8.482;2023-08-17T08:08:40;16.63;;;13.45;;
32505;SDS011;18955;51.224;8.482;2023-08-17T08:11:06;17.27;;;12.60;;
32505;SDS011;18955;51.224;8.482;2023-08-17T08:13:32;15.65;;;12.27;;
32505;SDS011;18955;51.224;8.482;2023-08-17T08:15:59;15.00;;;10.80;;
32505;SDS011;18955;51.224;8.482;2023-08-17T08:18:25;14.60;;;11.90;;
32505;SDS011;18955;51.224;8.482;2023-08-17T08:20:51;11.45;;;9.88;;
32505;SDS011;18955;51.224;8.482;2023-08-17T08:23:17;11.27;;;9.65;;
32505;SDS011;18955;51.224;8.482;2023-08-17T08:25:43;8.63;;;6.90;;
32505;SDS011;18955;51.224;8.482;2023-08-17T08:28:10;16.05;;;9.68;;
32505;SDS011;18955;51.224;8.482;2023-08-17T08:30:36;15.63;;;11.73;;
32505;SDS011;18955;51.224;8.482;2023-08-17T08:33:02;15.52;;;10.55;;
32505;SDS011;18955;51.224;8.482;2023-08-17T08:35:29;18.20;;;10.38;;
32505;SDS011;18955;51.224;8.482;2023-08-17T08:37:55;14.88;;;10.43;;
32505;SDS011;18955;51.224;8.482;2023-08-17T08:40:26;8.80;;;7.55;;
32505;SDS011;18955;51.224;8.482;2023-08-17T08:42:53;14.48;;;11.18;;
32505;SDS011;18955;51.224;8.482;2023-08-17T08:45:21;8.40;;;7.15;;
32505;SDS011;18955;51.224;8.482;2023-08-17T08:47:48;12.65;;;9.77;;
32505;SDS011;18955;51.224;8.482;2023-08-17T08:50:19;14.98;;;10.07;;
32505;SDS011;18955;51.224;8.482;2023-08-17T08:52:50;6.55;;;5.80;;
32505;SDS011;18955;51.224;8.482;2023-08-17T08:55:23;12.32;;;8.95;;
32505;SDS011;18955;51.224;8.482;2023-08-17T08:57:56;10.82;;;8.23;;
32505;SDS011;18955;51.224;8.482;2023-08-17T09:00:22;9.95;;;7.95;;
32505;SDS011;18955;51.224;8.482;2023-08-17T09:02:50;11.63;;;7.22;;
32505;SDS011;18955;51.224;8.482;2023-08-17T09:05:17;9.77;;;7.53;;
32505;SDS011;18955;51.224;8.482;2023-08-17T09:07:43;9.27;;;6.95;;
32505;SDS011;18955;51.224;8.482;2023-08-17T09:10:12;12.18;;;7.45;;
32505;SDS011;18955;51.224;8.482;2023-08-17T09:12:42;7.85;;;6.88;;
32505;SDS011;18955;51.224;8.482;2023-08-17T09:15:10;9.70;;;5.65;;
32505;SDS011;18955;51.224;8.482;2023-08-17T09:17:37;11.13;;;7.38;;
32505;SDS011;18955;51.224;8.482;2023-08-17T09:20:03;6.78;;;6.07;;
32505;SDS011;18955;51.224;8.482;2023-08-17T09:22:36;7.25;;;6.10;;
32505;SDS011;18955;51.224;8.482;2023-08-17T09:25:07;6.55;;;5.78;;
32505;SDS011;18955;51.224;8.482;2023-08-17T09:27:47;6.18;;;4.88;;
32505;SDS011;18955;51.224;8.482;2023-08-17T09:30:13;4.93;;;4.47;;
32505;SDS011;18955;51.224;8.482;2023-08-17T09:32:39;11.13;;;4.88;;
32505;SDS011;18955;51.224;8.482;2023-08-17T09:35:07;5.57;;;4.30;;
32505;SDS011;18955;51.224;8.482;2023-08-17T09:37:33;5.07;;;4.57;;
32505;SDS011;18955;51.224;8.482;2023-08-17T09:40:00;5.65;;;4.43;;
32505;SDS011;18955;51.224;8.482;2023-08-17T09:42:27;5.28;;;4.78;;
32505;SDS011;18955;51.224;8.482;2023-08-17T09:44:53;5.75;;;4.40;;
32505;SDS011;18955;51.224;8.482;2023-08-17T09:47:21;4.63;;;4.15;;
32505;SDS011;18955;51.224;8.482;2023-08-17T09:49:48;5.82;;;4.30;;
32505;SDS011;18955;51.224;8.482;2023-08-17T09:52:16;3.75;;;3.45;;
32505;SDS011;18955;51.224;8.482;2023-08-17T09:54:42;4.45;;;4.05;;
32505;SDS011;18955;51.224;8.482;2023-08-17T09:57:11;5.72;;;4.75;;
32505;SDS011;18955;51.224;8.482;2023-08-17T10:02:04;5.30;;;4.60;;
32505;SDS011;18955;51.224;8.482;2023-08-17T10:04:51;5.28;;;4.47;;
32505;SDS011;18955;51.224;8.482;2023-08-17T10:07:19;4.18;;;3.78;;
32505;SDS011;18955;51.224;8.482;2023-08-17T10:09:53;5.53;;;4.32;;
32505;SDS011;18955;51.224;8.482;2023-08-17T10:12:27;5.72;;;4.72;;
32505;SDS011;18955;51.224;8.482;2023-08-17T10:14:55;4.70;;;4.30;;
32505;SDS011;18955;51.224;8.482;2023-08-17T10:17:27;4.35;;;3.90;;
32505;SDS011;18955;51.224;8.482;2023-08-17T10:20:00;5.60;;;3.40;;
32505;SDS011;18955;51.224;8.482;2023-08-17T10:24:57;4.15;;;3.60;;
32505;SDS011;18955;51.224;8.482;2023-08-17T10:27:25;3.90;;;3.60;;
32505;SDS011;18955;51.224;8.482;2023-08-17T10:29:52;3.97;;;3.67;;
32505;SDS011;18955;51.224;8.482;2023-08-17T10:37:13;3.90;;;3.60;;
32505;SDS011;18955;51.224;8.482;2023-08-17T10:39:47;3.75;;;3.45;;
32505;SDS011;18955;51.224;8.482;2023-08-17T10:42:14;5.28;;;3.88;;
32505;SDS011;18955;51.224;8.482;2023-08-17T10:44:46;4.63;;;3.55;;
32505;SDS011;18955;51.224;8.482;2023-08-17T10:47:47;3.85;;;3.45;;
32505;SDS011;18955;51.224;8.482;2023-08-17T10:50:06;6.40;;;3.10;;
32505;SDS011;18955;51.224;8.482;2023-08-17T10:52:51;3.70;;;3.28;;
32505;SDS011;18955;51.224;8.482;2023-08-17T10:55:34;3.58;;;3.28;;
32505;SDS011;18955;51.224;8.482;2023-08-17T10:58:02;5.18;;;3.42;;
32505;SDS011;18955;51.224;8.482;2023-08-17T11:00:39;5.68;;;3.55;;
32505;SDS011;18955;51.224;8.482;2023-08-17T11:03:06;3.80;;;3.47;;
32505;SDS011;18955;51.224;8.482;2023-08-17T11:08:03;3.65;;;3.35;;
32505;SDS011;18955;51.224;8.482;2023-08-17T11:10:30;3.42;;;3.10;;
32505;SDS011;18955;51.224;8.482;2023-08-17T11:12:57;4.95;;;3.90;;
32505;SDS011;18955;51.224;8.482;2023-08-17T11:18:05;4.13;;;3.67;;
32505;SDS011;18955;51.224;8.482;2023-08-17T11:20:33;4.35;;;3.75;;
32505;SDS011;18955;51.224;8.482;2023-08-17T11:23:00;7.78;;;3.78;;
32505;SDS011;18955;51.224;8.482;2023-08-17T11:25:26;3.67;;;3.38;;
32505;SDS011;18955;51.224;8.482;2023-08-17T11:27:56;3.55;;;3.25;;
32505;SDS011;18955;51.224;8.482;2023-08-17T11:30:22;4.57;;;3.30;;
32505;SDS011;18955;51.224;8.482;2023-08-17T11:32:52;5.03;;;3.90;;
32505;SDS011;18955;51.224;8.482;2023-08-17T11:35:19;3.60;;;3.30;;
32505;SDS011;18955;51.224;8.482;2023-08-17T11:37:46;4.10;;;3.70;;
32505;SDS011;18955;51.224;8.482;2023-08-17T11:40:14;3.45;;;3.15;;
32505;SDS011;18955;51.224;8.482;2023-08-17T11:42:41;3.45;;;3.15;;
32505;SDS011;18955;51.224;8.482;2023-08-17T11:45:08;4.22;;;3.00;;
32505;SDS011;18955;51.224;8.482;2023-08-17T11:47:35;7.80;;;3.42;;
32505;SDS011;18955;51.224;8.482;2023-08-17T11:50:06;7.63;;;3.70;;
32505;SDS011;18955;51.224;8.482;2023-08-17T11:52:34;3.97;;;3.63;;
32505;SDS011;18955;51.224;8.482;2023-08-17T11:55:07;5.03;;;3.90;;
32505;SDS011;18955;51.224;8.482;2023-08-17T11:57:37;3.60;;;3.30;;
32505;SDS011;18955;51.224;8.482;2023-08-17T12:00:04;5.95;;;3.50;;
32505;SDS011;18955;51.224;8.482;2023-08-17T12:02:35;4.22;;;3.22;;
32505;SDS011;18955;51.224;8.482;2023-08-17T12:05:03;3.40;;;3.15;;
32505;SDS011;18955;51.224;8.482;2023-08-17T12:07:33;5.43;;;3.58;;
32505;SDS011;18955;51.224;8.482;2023-08-17T12:14:54;3.63;;;3.35;;
32505;SDS011;18955;51.224;8.482;2023-08-17T12:17:21;4.65;;;3.58;;
32505;SDS011;18955;51.224;8.482;2023-08-17T12:19:50;3.90;;;3.20;;
32505;SDS011;18955;51.224;8.482;2023-08-17T12:22:23;5.82;;;3.08;;
32505;SDS011;18955;51.224;8.482;2023-08-17T12:24:49;6.43;;;3.00;;
32505;SDS011;18955;51.224;8.482;2023-08-17T12:27:16;3.72;;;3.40;;
32505;SDS011;18955;51.224;8.482;2023-08-17T12:29:50;5.28;;;3.65;;
32505;SDS011;18955;51.224;8.482;2023-08-17T12:32:18;4.10;;;3.70;;
32505;SDS011;18955;51.224;8.482;2023-08-17T12:34:45;4.38;;;3.97;;
32505;SDS011;18955;51.224;8.482;2023-08-17T12:37:17;3.80;;;3.50;;
32505;SDS011;18955;51.224;8.482;2023-08-17T12:39:45;5.15;;;3.97;;
32505;SDS011;18955;51.224;8.482;2023-08-17T12:42:12;11.63;;;3.97;;
32505;SDS011;18955;51.224;8.482;2023-08-17T12:44:39;5.28;;;3.53;;
32505;SDS011;18955;51.224;8.482;2023-08-17T12:47:06;5.50;;;4.18;;
32505;SDS011;18955;51.224;8.482;2023-08-17T12:49:32;4.45;;;3.58;;
32505;SDS011;18955;51.224;8.482;2023-08-17T12:51:58;3.63;;;3.33;;
32505;SDS011;18955;51.224;8.482;2023-08-17T12:54:24;4.32;;;3.95;;
32505;SDS011;18955;51.224;8.482;2023-08-17T12:56:51;5.63;;;3.95;;
32505;SDS011;18955;51.224;8.482;2023-08-17T12:59:17;4.15;;;3.78;;
32505;SDS011;18955;51.224;8.482;2023-08-17T13:01:43;3.20;;;2.92;;
32505;SDS011;18955;51.224;8.482;2023-08-17T13:04:09;3.75;;;3.45;;
32505;SDS011;18955;51.224;8.482;2023-08-17T13:06:35;4.00;;;3.60;;
32505;SDS011;18955;51.224;8.482;2023-08-17T13:09:01;3.90;;;3.00;;
32505;SDS011;18955;51.224;8.482;2023-08-17T13:11:28;3.03;;;2.53;;
32505;SDS011;18955;51.224;8.482;2023-08-17T13:13:54;4.00;;;3.70;;
32505;SDS011;18955;51.224;8.482;2023-08-17T13:16:20;3.08;;;2.78;;
32505;SDS011;18955;51.224;8.482;2023-08-17T13:18:48;6.82;;;3.83;;
32505;SDS011;18955;51.224;8.482;2023-08-17T13:21:15;5.05;;;3.92;;
32505;SDS011;18955;51.224;8.482;2023-08-17T13:23:43;4.10;;;3.80;;
32505;SDS011;18955;51.224;8.482;2023-08-17T13:26:10;4.30;;;4.00;;
32505;SDS011;18955;51.224;8.482;2023-08-17T13:28:37;4.53;;;4.13;;
32505;SDS011;18955;51.224;8.482;2023-08-17T13:33:29;4.40;;;4.00;;
32505;SDS011;18955;51.224;8.482;2023-08-17T13:35:56;4.68;;;4.28;;
32505;SDS011;18955;51.224;8.482;2023-08-17T13:38:22;5.90;;;3.90;;
32505;SDS011;18955;51.224;8.482;2023-08-17T13:40:48;5.75;;;3.85;;
32505;SDS011;18955;51.224;8.482;2023-08-17T13:43:14;5.00;;;4.60;;
32505;SDS011;18955;51.224;8.482;2023-08-17T13:45:40;7.78;;;4.55;;
32505;SDS011;18955;51.224;8.482;2023-08-17T13:48:07;5.82;;;4.38;;
32505;SDS011;18955;51.224;8.482;2023-08-17T13:53:00;4.72;;;4.25;;
32505;SDS011;18955;51.224;8.482;2023-08-17T13:55:26;4.97;;;4.53;;
32505;SDS011;18955;51.224;8.482;2023-08-17T13:57:53;4.63;;;4.00;;
32505;SDS011;18955;51.224;8.482;2023-08-17T14:00:21;6.57;;;4.55;;
32505;SDS011;18955;51.224;8.482;2023-08-17T14:02:48;5.25;;;3.70;;
32505;SDS011;18955;51.224;8.482;2023-08-17T14:05:14;5.00;;;4.20;;
32505;SDS011;18955;51.224;8.482;2023-08-17T14:07:40;5.07;;;4.68;;
32505;SDS011;18955;51.224;8.482;2023-08-17T14:10:06;8.65;;;4.63;;
32505;SDS011;18955;51.224;8.482;2023-08-17T14:12:33;5.43;;;4.93;;
32505;SDS011;18955;51.224;8.482;2023-08-17T14:14:59;6.10;;;4.20;;
32505;SDS011;18955;51.224;8.482;2023-08-17T14:17:25;5.45;;;4.95;;
32505;SDS011;18955;51.224;8.482;2023-08-17T14:19:51;4.45;;;3.55;;
32505;SDS011;18955;51.224;8.482;2023-08-17T14:22:18;6.60;;;5.00;;
32505;SDS011;18955;51.224;8.482;2023-08-17T14:24:44;6.40;;;5.80;;
32505;SDS011;18955;51.224;8.482;2023-08-17T14:27:10;7.03;;;4.45;;
32505;SDS011;18955;51.224;8.482;2023-08-17T14:29:36;6.38;;;5.80;;
32505;SDS011;18955;51.224;8.482;2023-08-17T14:32:02;5.47;;;4.97;;
32505;SDS011;18955;51.224;8.482;2023-08-17T14:34:29;8.70;;;6.28;;
32505;SDS011;18955;51.224;8.482;2023-08-17T14:36:55;5.63;;;5.13;;
32505;SDS011;18955;51.224;8.482;2023-08-17T14:39:21;8.48;;;7.60;;
32505;SDS011;18955;51.224;8.482;2023-08-17T14:41:47;7.93;;;7.13;;
32505;SDS011;18955;51.224;8.482;2023-08-17T14:44:13;7.13;;;6.50;;
32505;SDS011;18955;51.224;8.482;2023-08-17T14:46:40;9.30;;;7.97;;
32505;SDS011;18955;51.224;8.482;2023-08-17T14:49:08;10.55;;;8.02;;
32505;SDS011;18955;51.224;8.482;2023-08-17T14:51:38;12.98;;;7.47;;
32505;SDS011;18955;51.224;8.482;2023-08-17T14:54:06;8.73;;;6.75;;
32505;SDS011;18955;51.224;8.482;2023-08-17T14:56:33;10.52;;;8.70;;
32505;SDS011;18955;51.224;8.482;2023-08-17T14:58:59;9.32;;;7.65;;
32505;SDS011;18955;51.224;8.482;2023-08-17T15:01:26;9.88;;;8.48;;
32505;SDS011;18955;51.224;8.482;2023-08-17T15:03:52;11.35;;;10.18;;
32505;SDS011;18955;51.224;8.482;2023-08-17T15:06:18;12.10;;;10.23;;
32505;SDS011;18955;51.224;8.482;2023-08-17T15:08:49;10.90;;;9.40;;
32505;SDS011;18955;51.224;8.482;2023-08-17T15:11:16;11.95;;;10.60;;
32505;SDS011;18955;51.224;8.482;2023-08-17T15:13:42;15.07;;;9.40;;
32505;SDS011;18955;51.224;8.482;2023-08-17T15:16:09;14.00;;;10.05;;
32505;SDS011;18955;51.224;8.482;2023-08-17T15:18:36;14.35;;;11.25;;
32505;SDS011;18955;51.224;8.482;2023-08-17T15:21:03;13.68;;;10.50;;
32505;SDS011;18955;51.224;8.482;2023-08-17T15:23:29;14.00;;;11.70;;
32505;SDS011;18955;51.224;8.482;2023-08-17T15:25:55;14.65;;;11.48;;